Time;durP1;ratioP1;P1;durP2;ratioP2;P2;SDS_P1;SDS_P2;PMS_P1;PMS_P2;Temp;Humidity;BMP_temperature;BMP_pressure;BME280_temperature;BME280_humidity;BME280_pressure;Samples;Min_cycle;Max_cycle;Signal;HPM_P1;HPM_P2
2022/01/07 03:06:12;;;;;;;2.35;1.90;;;-2.40;99.90;;;;;;7380755;19;20313;-80
2022/01/07 03:13:54;;;;;;;1.90;1.58;;;-2.60;99.90;;;;;;7300333;19;2004475;-83
2022/01/07 03:54:17;;;;;;;3.45;2.10;;;-2.90;99.90;;;;;;7304113;19;22243;-78
2022/01/07 03:56:42;;;;;;;2.88;2.55;;;-2.90;99.90;;;;;;7407201;19;20400;-80
2022/01/07 04:50:11;;;;;;;1.60;1.50;;;-2.50;99.90;;;;;;7247908;19;2004269;-88
2022/01/07 05:03:56;;;;;;;2.03;1.70;;;-2.20;99.90;;;;;;7373944;19;20323;-80
2022/01/07 05:14:11;;;;;;;1.75;1.65;;;-2.20;99.90;;;;;;7419339;19;20342;-86
2022/01/07 05:28:00;;;;;;;2.38;1.50;;;-2.10;99.90;;;;;;7138912;19;2004354;-86
2022/01/07 05:38:56;;;;;;;1.67;1.57;;;-2.00;99.90;;;;;;7415748;19;20343;-92
2022/01/07 05:42:53;;;;;;;1.30;1.20;;;-1.90;99.90;;;;;;7391140;19;20706;-93
2022/01/07 05:49:29;;;;;;;1.80;1.70;;;-2.00;99.90;;;;;;7178592;19;2004434;-84
2022/01/07 06:10:23;;;;;;;2.50;1.45;;;-1.90;99.90;;;;;;7287946;19;2004440;-84
2022/01/07 06:13:46;;;;;;;2.33;1.52;;;-1.90;99.90;;;;;;7394907;19;20337;-85
2022/01/07 06:25:37;;;;;;;3.38;1.70;;;-2.00;99.90;;;;;;7294186;19;20408;-79
2022/01/07 06:42:41;;;;;;;1.40;1.30;;;-1.90;99.90;;;;;;7423522;19;20379;-80
2022/01/07 06:53:33;;;;;;;1.60;1.50;;;-1.90;99.90;;;;;;7422496;19;20340;-80
2022/01/07 06:57:04;;;;;;;1.77;1.30;;;-1.90;99.90;;;;;;7420043;19;20362;-80
2022/01/07 07:04:14;;;;;;;1.60;1.50;;;-1.80;99.90;;;;;;7287279;19;2004490;-79
2022/01/07 07:06:44;;;;;;;2.13;1.60;;;-1.80;99.90;;;;;;7272200;19;2004234;-80
2022/01/07 07:09:18;;;;;;;4.97;2.05;;;-1.70;99.90;;;;;;7376834;19;20417;-80
2022/01/07 07:14:31;;;;;;;2.67;1.50;;;-1.70;99.90;;;;;;7394787;19;20334;-79
2022/01/07 07:20:03;;;;;;;3.05;2.00;;;-1.70;99.90;;;;;;7395859;19;20338;-81
2022/01/07 07:22:48;;;;;;;1.70;1.30;;;-1.70;99.90;;;;;;7373816;19;20317;-80
2022/01/07 07:26:34;;;;;;;1.60;1.50;;;-1.70;99.90;;;;;;7398674;19;20348;-79
2022/01/07 07:29:46;;;;;;;3.75;2.25;;;-1.70;99.90;;;;;;7391616;19;20341;-80
2022/01/07 07:32:15;;;;;;;2.92;1.60;;;-1.70;99.90;;;;;;7390541;19;20645;-80
2022/01/07 07:34:57;;;;;;;1.63;1.53;;;-1.60;99.90;;;;;;7375271;19;20666;-80
2022/01/07 07:37:23;;;;;;;3.13;1.73;;;-1.60;99.90;;;;;;7287237;19;2006096;-79
2022/01/07 07:39:49;;;;;;;2.45;1.75;;;-1.50;99.90;;;;;;7390279;19;20871;-78
2022/01/07 07:42:15;;;;;;;3.95;1.92;;;-1.60;99.90;;;;;;7369229;19;20320;-80
2022/01/07 07:44:42;;;;;;;3.13;2.35;;;-1.60;99.90;;;;;;7392988;19;20313;-79
2022/01/07 07:50:02;;;;;;;2.33;2.10;;;-1.70;99.90;;;;;;7391137;19;20312;-79
2022/01/07 07:52:28;;;;;;;2.47;1.80;;;-1.50;99.90;;;;;;7391060;19;20731;-78
2022/01/07 07:54:54;;;;;;;2.80;2.20;;;-1.60;99.90;;;;;;7390058;19;20313;-79
2022/01/07 08:00:17;;;;;;;2.97;1.95;;;-1.60;99.90;;;;;;7391960;19;20324;-78
2022/01/07 08:02:42;;;;;;;2.30;2.10;;;-1.50;99.90;;;;;;7387200;19;20321;-79
2022/01/07 08:05:09;;;;;;;1.92;1.83;;;-1.40;99.90;;;;;;7388981;19;20339;-79
2022/01/07 08:07:48;;;;;;;2.38;1.60;;;-1.40;99.90;;;;;;7393705;19;20324;-78
2022/01/07 08:10:20;;;;;;;4.20;3.53;;;-1.30;99.90;;;;;;7389562;19;20722;-78
2022/01/07 08:18:16;;;;;;;3.57;2.13;;;-1.20;99.90;;;;;;7283963;19;2004383;-79
2022/01/07 08:20:41;;;;;;;2.33;2.00;;;-1.10;99.90;;;;;;7389758;19;20372;-79
2022/01/07 08:23:07;;;;;;;4.45;2.80;;;-1.00;99.90;;;;;;7387453;19;20619;-79
2022/01/07 08:25:33;;;;;;;2.20;2.00;;;-1.10;99.90;;;;;;7389759;19;20337;-79
2022/01/07 08:36:20;;;;;;;2.50;2.30;;;-0.80;99.90;;;;;;7386832;19;20338;-79
2022/01/07 08:41:33;;;;;;;3.20;2.35;;;-0.60;99.90;;;;;;7390145;19;20680;-78
2022/01/07 08:44:02;;;;;;;2.80;2.25;;;-0.60;99.90;;;;;;7387269;19;20313;-77
2022/01/07 08:46:30;;;;;;;3.73;2.30;;;-0.50;99.90;;;;;;7387889;19;20676;-78
2022/01/07 08:48:56;;;;;;;2.20;2.00;;;-0.40;99.90;;;;;;7385772;19;20320;-78
2022/01/07 08:51:22;;;;;;;2.35;2.10;;;-0.40;99.90;;;;;;7389818;19;20312;-77
2022/01/07 08:53:48;;;;;;;4.20;3.13;;;-0.30;99.90;;;;;;7387623;19;20335;-78
2022/01/07 08:56:16;;;;;;;3.47;2.27;;;-0.20;99.90;;;;;;7388416;19;20321;-78
2022/01/07 09:05:45;;;;;;;3.53;3.00;;;0.00;99.90;;;;;;7317813;19;20361;-78
2022/01/07 09:15:05;;;;;;;2.90;2.60;;;0.20;99.90;;;;;;7343009;19;20361;-79
2022/01/07 09:21:06;;;;;;;2.42;2.17;;;0.20;99.90;;;;;;7296277;19;20374;-78
2022/01/07 09:42:53;;;;;;;3.97;2.80;;;0.80;99.90;;;;;;7311585;19;20400;-79
2022/01/07 09:45:33;;;;;;;4.07;3.22;;;0.60;99.90;;;;;;7349748;19;20678;-78
2022/01/07 09:52:48;;;;;;;6.77;2.90;;;0.80;99.90;;;;;;7300659;19;20323;-79
2022/01/07 09:55:28;;;;;;;3.42;2.72;;;0.90;99.90;;;;;;7253942;19;2004593;-79
2022/01/07 09:59:05;;;;;;;4.27;2.83;;;0.90;99.90;;;;;;7308929;19;21702;-79
2022/01/07 10:02:08;;;;;;;3.25;2.60;;;0.90;99.90;;;;;;7180736;19;2004246;-79
2022/01/07 10:04:41;;;;;;;4.33;3.03;;;0.90;99.90;;;;;;7183249;19;2004846;-78
2022/01/07 10:10:39;;;;;;;3.13;2.80;;;1.00;99.90;;;;;;7320578;19;20328;-77
2022/01/07 10:13:24;;;;;;;3.20;2.90;;;1.10;99.90;;;;;;7137604;19;2004337;-77
2022/01/07 10:16:27;;;;;;;5.00;2.92;;;1.10;99.90;;;;;;7238185;19;2004395;-78
2022/01/07 10:19:29;;;;;;;3.65;2.97;;;1.10;99.90;;;;;;7328955;19;20339;-79
2022/01/07 10:22:13;;;;;;;6.38;4.85;;;1.20;99.90;;;;;;7227384;19;2004635;-79
2022/01/07 10:25:01;;;;;;;5.93;4.18;;;1.20;99.90;;;;;;7241562;19;2004417;-78
2022/01/07 10:28:18;;;;;;;7.13;3.67;;;1.20;99.90;;;;;;7234580;19;2004468;-80
2022/01/07 10:31:23;;;;;;;6.05;4.20;;;1.30;99.90;;;;;;7397907;19;20397;-78
2022/01/07 10:34:58;;;;;;;8.00;4.57;;;1.30;99.90;;;;;;7300497;19;20344;-80
2022/01/07 10:45:02;;;;;;;4.95;3.65;;;1.50;99.90;;;;;;7400164;19;20340;-79
2022/01/07 10:48:11;;;;;;;4.65;2.75;;;1.50;99.90;;;;;;7395666;19;20354;-79
2022/01/07 11:03:05;;;;;;;3.20;2.80;;;1.70;99.90;;;;;;7219811;19;2004456;-81
2022/01/07 11:05:47;;;;;;;4.13;3.17;;;1.80;99.90;;;;;;7218847;19;2004284;-83
2022/01/07 11:12:04;;;;;;;6.30;3.47;;;1.90;99.90;;;;;;7375899;19;20363;-78
2022/01/07 11:14:55;;;;;;;5.30;3.30;;;1.90;99.90;;;;;;7291531;19;20352;-79
2022/01/07 11:18:00;;;;;;;3.15;2.85;;;2.10;99.90;;;;;;7071822;19;2004362;-79
2022/01/07 11:21:10;;;;;;;3.28;2.97;;;2.20;99.90;;;;;;7225052;19;2004294;-78
2022/01/07 11:23:58;;;;;;;6.95;3.53;;;2.40;99.90;;;;;;7259959;19;2004409;-78
2022/01/07 11:26:31;;;;;;;7.22;3.63;;;2.40;99.90;;;;;;7370473;19;20352;-79
2022/01/07 11:29:20;;;;;;;5.45;3.25;;;2.50;99.90;;;;;;7343212;19;20378;-79
2022/01/07 11:32:35;;;;;;;4.15;3.35;;;2.60;99.90;;;;;;7314684;19;20345;-78
2022/01/07 11:35:25;;;;;;;3.47;3.17;;;2.60;99.90;;;;;;7162411;19;2004348;-80
2022/01/07 11:38:09;;;;;;;4.72;3.28;;;2.90;99.90;;;;;;7285105;19;2004410;-79
2022/01/07 11:40:45;;;;;;;4.55;3.17;;;3.10;99.90;;;;;;7386025;19;20317;-79
2022/01/07 11:43:32;;;;;;;4.70;3.13;;;3.20;99.90;;;;;;7385676;19;20335;-77
2022/01/07 11:46:20;;;;;;;4.17;3.27;;;3.20;99.90;;;;;;7388103;19;20312;-79
2022/01/07 11:48:52;;;;;;;6.38;3.30;;;3.20;99.90;;;;;;7270411;19;2004380;-80
2022/01/07 11:51:22;;;;;;;3.40;3.08;;;3.20;99.90;;;;;;7369609;19;21961;-79
2022/01/07 11:53:48;;;;;;;4.25;3.35;;;3.10;99.90;;;;;;7385928;19;20337;-78
2022/01/07 11:56:19;;;;;;;3.58;3.20;;;2.90;99.90;;;;;;7381606;19;20388;-78
2022/01/07 11:58:55;;;;;;;4.28;3.00;;;3.00;99.90;;;;;;7387560;19;20289;-78
2022/01/07 12:01:35;;;;;;;5.33;3.10;;;2.90;99.90;;;;;;7264252;19;2006981;-79
2022/01/07 12:04:18;;;;;;;5.00;3.67;;;2.90;99.90;;;;;;7285172;19;2004395;-78
2022/01/07 12:06:47;;;;;;;5.40;3.25;;;2.90;99.90;;;;;;7387068;19;20320;-79
2022/01/07 12:09:21;;;;;;;4.25;2.97;;;3.00;99.90;;;;;;7386809;19;20338;-78
2022/01/07 12:12:00;;;;;;;4.40;3.80;;;3.20;99.90;;;;;;7386657;19;20860;-78
2022/01/07 12:14:41;;;;;;;4.43;3.17;;;3.20;99.90;;;;;;7367527;19;20320;-80
2022/01/07 12:17:13;;;;;;;6.30;3.10;;;3.20;99.90;;;;;;7286436;19;2005419;-77
2022/01/07 12:19:40;;;;;;;5.18;2.97;;;3.20;99.90;;;;;;7383025;19;20332;-79
2022/01/07 12:22:10;;;;;;;4.68;3.03;;;3.20;99.90;;;;;;7384471;19;21084;-79
2022/01/07 12:24:37;;;;;;;3.60;2.95;;;3.10;99.90;;;;;;7386915;19;20412;-79
2022/01/07 12:27:26;;;;;;;4.45;3.00;;;3.10;99.90;;;;;;7387435;19;20333;-78
2022/01/07 12:29:58;;;;;;;3.78;2.70;;;3.10;99.90;;;;;;7285868;19;2004325;-78
2022/01/07 12:32:35;;;;;;;3.50;2.70;;;3.20;99.90;;;;;;7386947;19;20325;-78
2022/01/07 12:35:03;;;;;;;4.82;3.08;;;3.20;99.90;;;;;;7388676;19;20831;-78
2022/01/07 12:37:30;;;;;;;5.15;2.90;;;3.20;99.90;;;;;;7386221;19;20344;-78
2022/01/07 12:39:58;;;;;;;6.83;3.27;;;3.40;99.90;;;;;;7388712;19;20312;-78
2022/01/07 12:42:28;;;;;;;5.22;3.40;;;3.40;99.90;;;;;;7387965;19;20316;-81
2022/01/07 12:44:57;;;;;;;3.37;3.07;;;3.40;99.90;;;;;;7389921;19;20353;-78
2022/01/07 12:47:30;;;;;;;4.03;3.22;;;3.40;99.90;;;;;;7390038;19;20949;-80
2022/01/07 12:49:59;;;;;;;4.60;3.63;;;3.40;99.90;;;;;;7387128;19;20416;-78
2022/01/07 12:52:35;;;;;;;6.00;3.43;;;3.40;99.90;;;;;;7388796;19;20312;-80
2022/01/07 12:55:12;;;;;;;5.93;3.55;;;3.30;99.90;;;;;;7390607;19;20319;-79
2022/01/07 12:57:48;;;;;;;7.22;4.30;;;3.30;99.90;;;;;;7285313;19;2004431;-79
2022/01/07 13:00:33;;;;;;;7.93;5.43;;;3.20;99.90;;;;;;7390268;19;20324;-79
2022/01/07 13:03:05;;;;;;;5.22;3.58;;;3.00;99.90;;;;;;7283827;19;2004452;-79
2022/01/07 13:05:52;;;;;;;4.38;3.42;;;2.90;99.90;;;;;;7386269;19;20336;-82
2022/01/07 13:08:19;;;;;;;4.67;3.10;;;2.80;99.90;;;;;;7286359;19;2004426;-78
2022/01/07 13:10:49;;;;;;;3.75;3.38;;;2.70;99.90;;;;;;7365739;19;20396;-80
2022/01/07 13:13:26;;;;;;;3.55;3.15;;;2.80;99.90;;;;;;7365054;19;20392;-79
2022/01/07 13:15:59;;;;;;;4.03;3.00;;;2.70;99.90;;;;;;7242112;19;2004722;-79
2022/01/07 13:21:42;;;;;;;3.13;2.83;;;2.70;99.90;;;;;;7369188;19;20340;-79
2022/01/07 13:24:37;;;;;;;3.75;2.78;;;2.60;99.90;;;;;;7229149;19;2004701;-79
2022/01/07 13:27:58;;;;;;;5.75;3.42;;;2.60;99.90;;;;;;7286247;19;2004573;-79
2022/01/07 13:30:47;;;;;;;3.95;3.25;;;2.60;99.90;;;;;;7257235;19;2004405;-79
2022/01/07 13:33:16;;;;;;;5.05;3.20;;;2.70;99.90;;;;;;7375328;19;20407;-77
2022/01/07 13:36:12;;;;;;;4.60;3.88;;;2.70;99.90;;;;;;7389389;19;20325;-79
2022/01/07 13:39:03;;;;;;;6.47;3.58;;;2.30;99.90;;;;;;7246842;19;2004474;-78
2022/01/07 13:41:53;;;;;;;3.70;3.40;;;2.50;99.90;;;;;;7391129;19;20904;-79
2022/01/07 13:45:04;;;;;;;3.65;3.00;;;2.50;99.90;;;;;;7295373;19;20352;-78
2022/01/07 13:47:34;;;;;;;4.50;3.40;;;2.50;99.90;;;;;;7166240;19;2005625;-79
2022/01/07 13:50:11;;;;;;;5.20;3.50;;;2.50;99.90;;;;;;7388300;19;20355;-78
2022/01/07 13:52:45;;;;;;;6.07;3.03;;;2.40;99.90;;;;;;7366110;19;20335;-79
2022/01/07 13:55:41;;;;;;;3.58;3.28;;;2.50;99.90;;;;;;7390342;19;20356;-78
2022/01/07 13:58:16;;;;;;;4.95;3.47;;;2.40;99.90;;;;;;7253465;19;2004543;-79
2022/01/07 14:19:54;;;;;;;4.53;3.40;;;2.30;99.90;;;;;;7380049;19;20396;-82
2022/01/07 14:22:20;;;;;;;4.57;3.80;;;2.20;99.90;;;;;;7391104;19;20352;-82
2022/01/07 14:24:46;;;;;;;4.72;3.70;;;2.40;99.90;;;;;;7392665;19;20330;-81
2022/01/07 14:27:12;;;;;;;7.32;5.50;;;2.20;99.90;;;;;;7390547;19;20885;-82
2022/01/07 14:29:38;;;;;;;5.05;3.60;;;2.20;99.90;;;;;;7391053;19;20337;-82
2022/01/07 14:32:04;;;;;;;4.30;3.87;;;2.20;99.90;;;;;;7393466;19;20335;-82
2022/01/07 14:34:30;;;;;;;4.00;3.30;;;2.20;99.90;;;;;;7393164;19;20321;-82
2022/01/07 14:36:59;;;;;;;4.75;3.53;;;2.30;99.90;;;;;;7371054;19;20353;-82
2022/01/07 14:39:25;;;;;;;4.93;3.65;;;2.20;99.90;;;;;;7392665;19;20348;-81
2022/01/07 14:41:51;;;;;;;6.07;3.90;;;2.20;99.90;;;;;;7394374;19;20336;-82
2022/01/07 14:44:17;;;;;;;4.78;3.53;;;2.20;99.90;;;;;;7405559;19;20333;-82
2022/01/07 14:46:42;;;;;;;5.60;4.22;;;2.20;99.90;;;;;;7383512;19;20346;-81
2022/01/07 14:49:08;;;;;;;4.90;4.03;;;2.20;99.90;;;;;;7389783;19;20312;-81
2022/01/07 14:51:34;;;;;;;6.00;3.75;;;2.20;99.90;;;;;;7390457;19;21042;-81
2022/01/07 14:54:00;;;;;;;4.23;3.67;;;2.20;99.90;;;;;;7390570;19;20328;-81
2022/01/07 14:56:26;;;;;;;5.10;3.90;;;2.20;99.90;;;;;;7390049;19;20309;-83
2022/01/07 14:58:52;;;;;;;6.10;4.93;;;2.10;99.90;;;;;;7373093;19;20865;-81
2022/01/07 15:01:18;;;;;;;5.00;3.90;;;2.10;99.90;;;;;;7389644;19;20404;-82
2022/01/07 15:03:44;;;;;;;7.70;5.32;;;2.20;99.90;;;;;;7388121;19;20328;-81
2022/01/07 15:06:10;;;;;;;10.77;6.70;;;2.20;99.90;;;;;;7392032;19;20383;-83
2022/01/07 15:08:36;;;;;;;12.82;8.45;;;2.20;99.90;;;;;;7391562;19;20337;-82
2022/01/07 15:11:02;;;;;;;12.25;7.70;;;2.10;99.90;;;;;;7390501;19;20320;-81
2022/01/07 15:13:28;;;;;;;6.18;5.28;;;2.10;99.90;;;;;;7389057;19;20344;-82
2022/01/07 15:18:23;;;;;;;12.73;7.85;;;2.10;99.90;;;;;;7377870;19;20356;-82
2022/01/07 15:20:49;;;;;;;8.20;5.15;;;2.10;99.90;;;;;;7391483;19;20424;-81
2022/01/07 15:23:15;;;;;;;13.85;7.45;;;2.10;99.90;;;;;;7388589;19;20320;-82
2022/01/07 15:25:41;;;;;;;8.95;6.25;;;2.10;99.90;;;;;;7395008;19;20333;-81
2022/01/07 15:28:07;;;;;;;8.57;5.85;;;2.10;99.90;;;;;;7375976;19;20313;-82
2022/01/07 15:30:34;;;;;;;14.98;8.00;;;2.00;99.90;;;;;;7397738;19;20408;-83
2022/01/07 15:33:04;;;;;;;13.60;8.90;;;1.90;99.90;;;;;;7359584;19;21817;-81
2022/01/07 15:35:31;;;;;;;11.13;8.25;;;1.90;99.90;;;;;;7400554;19;20312;-82
2022/01/07 15:37:57;;;;;;;17.52;10.02;;;1.90;99.90;;;;;;7398870;19;20336;-83
2022/01/07 15:40:23;;;;;;;8.68;6.47;;;2.00;99.90;;;;;;7400126;19;20386;-82
2022/01/07 15:42:49;;;;;;;8.35;4.90;;;2.00;99.90;;;;;;7400020;19;20344;-83
2022/01/07 15:45:15;;;;;;;5.88;4.15;;;2.10;99.90;;;;;;7380197;19;20793;-82
2022/01/07 15:47:42;;;;;;;4.78;4.05;;;2.10;99.90;;;;;;7403485;19;20324;-82
2022/01/07 15:50:09;;;;;;;5.03;4.32;;;2.10;99.90;;;;;;7400124;19;20321;-83
2022/01/07 15:52:38;;;;;;;5.90;4.22;;;2.10;99.90;;;;;;7399002;19;20315;-83
2022/01/07 15:55:05;;;;;;;7.82;4.88;;;2.10;99.90;;;;;;7380612;19;20309;-82
2022/01/07 15:57:31;;;;;;;5.53;3.83;;;2.10;99.90;;;;;;7397919;19;20349;-82
2022/01/07 15:59:57;;;;;;;6.10;4.78;;;2.10;99.90;;;;;;7392759;19;20325;-82
2022/01/07 16:02:26;;;;;;;8.68;6.90;;;2.10;99.90;;;;;;7397385;19;20336;-82
2022/01/07 16:04:52;;;;;;;5.50;3.95;;;2.10;99.90;;;;;;7374302;19;20414;-82
2022/01/07 16:07:21;;;;;;;4.00;3.50;;;2.10;99.90;;;;;;7387901;19;20317;-82
2022/01/07 16:09:48;;;;;;;4.70;3.63;;;2.10;99.90;;;;;;7399468;19;20324;-81
2022/01/07 16:12:14;;;;;;;5.40;2.80;;;2.10;99.90;;;;;;7400378;19;20321;-81
2022/01/07 16:14:40;;;;;;;3.25;2.95;;;2.10;99.90;;;;;;7378847;19;20905;-82
2022/01/07 16:17:06;;;;;;;3.15;2.85;;;2.10;99.90;;;;;;7397333;19;20307;-82
2022/01/07 16:19:36;;;;;;;5.10;3.25;;;2.10;99.90;;;;;;7400804;19;20955;-82
2022/01/07 16:22:03;;;;;;;2.63;2.42;;;2.20;99.90;;;;;;7377232;19;20317;-82
2022/01/07 16:24:35;;;;;;;4.55;3.20;;;2.20;99.90;;;;;;7403712;19;20331;-82
2022/01/07 16:27:22;;;;;;;3.42;2.78;;;2.10;99.90;;;;;;7302968;19;2004457;-81
2022/01/07 16:29:51;;;;;;;2.60;2.40;;;2.20;99.90;;;;;;7376342;19;20340;-82
2022/01/07 16:32:17;;;;;;;3.45;2.50;;;2.20;99.90;;;;;;7390384;19;20325;-81
2022/01/07 16:34:42;;;;;;;2.30;2.10;;;2.30;99.90;;;;;;7384345;19;20328;-81
2022/01/07 16:37:12;;;;;;;3.00;2.20;;;2.10;99.90;;;;;;7380261;19;20337;-81
2022/01/07 16:39:38;;;;;;;2.58;2.30;;;2.10;99.90;;;;;;7386194;19;20316;-81
2022/01/07 16:42:09;;;;;;;2.80;2.50;;;2.10;99.90;;;;;;7386000;19;20374;-82
2022/01/07 16:44:38;;;;;;;3.47;2.83;;;1.90;99.90;;;;;;7383114;19;20316;-82
2022/01/07 16:47:07;;;;;;;3.60;2.35;;;1.90;99.90;;;;;;7342151;19;20325;-81
2022/01/07 16:49:40;;;;;;;3.53;2.63;;;1.80;99.90;;;;;;7282063;19;2004252;-81
2022/01/07 16:52:06;;;;;;;2.78;2.58;;;1.80;99.90;;;;;;7383316;19;20745;-81
2022/01/07 16:54:32;;;;;;;2.60;2.40;;;1.70;99.90;;;;;;7372002;19;20338;-81
2022/01/07 16:57:00;;;;;;;2.85;2.58;;;1.70;99.90;;;;;;7385005;19;20325;-80
2022/01/07 16:59:27;;;;;;;4.50;2.63;;;1.50;99.90;;;;;;7383899;19;20349;-80
2022/01/07 17:01:53;;;;;;;3.00;2.80;;;1.60;99.90;;;;;;7365384;19;20382;-81
2022/01/07 17:04:21;;;;;;;4.47;3.80;;;1.60;99.90;;;;;;7383424;19;20416;-80
2022/01/07 17:07:19;;;;;;;4.63;4.10;;;1.50;99.90;;;;;;7366309;19;20333;-81
2022/01/07 17:09:56;;;;;;;3.83;3.45;;;1.50;99.90;;;;;;7239852;19;2004250;-82
2022/01/07 17:12:22;;;;;;;4.32;3.53;;;1.50;99.90;;;;;;7358907;19;20352;-82
2022/01/07 17:14:49;;;;;;;3.80;3.45;;;1.40;99.90;;;;;;7383745;19;20947;-81
2022/01/07 17:17:16;;;;;;;4.07;3.67;;;1.50;99.90;;;;;;7387780;19;20325;-81
2022/01/07 17:19:50;;;;;;;3.77;3.27;;;1.50;99.90;;;;;;7372540;19;20351;-81
2022/01/07 17:22:19;;;;;;;4.28;3.88;;;1.40;99.90;;;;;;7366554;19;20312;-81
2022/01/07 17:25:11;;;;;;;3.55;3.25;;;1.40;99.90;;;;;;7384693;19;20328;-81
2022/01/07 17:27:40;;;;;;;4.47;3.70;;;1.30;99.90;;;;;;7200428;19;2004796;-81
2022/01/07 17:30:32;;;;;;;4.63;4.20;;;1.50;99.90;;;;;;7385557;19;20377;-81
2022/01/07 17:33:03;;;;;;;4.32;3.92;;;1.40;99.90;;;;;;7250828;19;2004437;-81
2022/01/07 17:35:29;;;;;;;4.95;3.88;;;1.40;99.90;;;;;;7381777;19;20689;-81
2022/01/07 17:37:56;;;;;;;4.50;4.10;;;1.50;99.90;;;;;;7390554;19;20411;-81
2022/01/07 17:40:24;;;;;;;4.60;4.05;;;1.40;99.90;;;;;;7372611;19;20316;-81
2022/01/07 17:42:50;;;;;;;6.68;4.55;;;1.40;99.90;;;;;;7370950;19;20337;-81
2022/01/07 17:45:16;;;;;;;7.07;5.60;;;1.30;99.90;;;;;;7392245;19;20309;-81
2022/01/07 17:47:42;;;;;;;5.53;5.00;;;1.30;99.90;;;;;;7389165;19;20435;-80
2022/01/07 17:50:09;;;;;;;7.03;4.93;;;1.20;99.90;;;;;;7385132;19;20332;-81
2022/01/07 17:52:35;;;;;;;5.10;4.30;;;1.20;99.90;;;;;;7372629;19;20324;-80
2022/01/07 17:55:01;;;;;;;5.18;4.68;;;1.20;99.90;;;;;;7390846;19;20656;-81
2022/01/07 17:57:32;;;;;;;4.63;4.20;;;1.30;99.90;;;;;;7350500;19;20781;-81
2022/01/07 17:59:58;;;;;;;7.20;4.57;;;1.30;99.90;;;;;;7374406;19;20320;-81
2022/01/07 18:02:26;;;;;;;7.38;4.63;;;1.30;99.90;;;;;;7381124;19;20343;-83
2022/01/07 18:04:52;;;;;;;4.88;3.88;;;1.40;99.90;;;;;;7383811;19;20370;-82
2022/01/07 18:07:18;;;;;;;7.32;4.68;;;1.20;99.90;;;;;;7393832;19;20888;-81
2022/01/07 18:09:44;;;;;;;4.97;3.97;;;1.30;99.90;;;;;;7391854;19;20328;-81
2022/01/07 18:12:11;;;;;;;9.63;6.35;;;1.20;99.90;;;;;;7392479;19;20388;-81
2022/01/07 18:14:39;;;;;;;8.05;5.25;;;1.40;99.90;;;;;;7385513;19;20311;-81
2022/01/07 18:17:08;;;;;;;4.68;4.28;;;1.30;99.90;;;;;;7386659;19;20344;-81
2022/01/07 18:19:37;;;;;;;5.80;4.45;;;1.30;99.90;;;;;;7376179;19;20849;-81
2022/01/07 18:22:07;;;;;;;4.80;4.03;;;1.20;99.90;;;;;;7392974;19;20861;-81
2022/01/07 18:24:39;;;;;;;5.07;4.25;;;1.20;99.90;;;;;;7377802;19;20345;-82
2022/01/07 18:27:08;;;;;;;5.47;4.57;;;1.20;99.90;;;;;;7325342;19;20344;-81
2022/01/07 18:29:39;;;;;;;5.22;4.47;;;1.20;99.90;;;;;;7384057;19;20316;-81
2022/01/07 18:32:46;;;;;;;5.68;5.03;;;1.20;99.90;;;;;;7389994;19;20317;-80
2022/01/07 18:35:19;;;;;;;5.83;4.87;;;1.10;99.90;;;;;;7225373;19;2004467;-83
2022/01/07 18:37:54;;;;;;;5.72;4.43;;;1.10;99.90;;;;;;7386567;19;20345;-81
2022/01/07 18:40:28;;;;;;;5.37;4.07;;;1.00;99.90;;;;;;7370513;19;20855;-82
2022/01/07 18:43:16;;;;;;;7.40;4.57;;;1.00;99.90;;;;;;7271037;19;2004467;-81
2022/01/07 18:46:09;;;;;;;5.18;4.20;;;1.00;99.90;;;;;;7241078;19;2004217;-83
2022/01/07 18:48:39;;;;;;;5.82;4.35;;;1.00;99.90;;;;;;7346959;19;20348;-82
2022/01/07 18:51:08;;;;;;;5.47;4.18;;;1.10;99.90;;;;;;7367377;19;20316;-81
2022/01/07 18:53:52;;;;;;;5.85;4.20;;;1.10;99.90;;;;;;7370904;19;20340;-81
2022/01/07 18:56:36;;;;;;;5.07;3.97;;;1.10;99.90;;;;;;7369532;19;20320;-81
2022/01/07 18:59:05;;;;;;;4.95;4.32;;;1.10;99.90;;;;;;7390989;19;20345;-82
2022/01/07 19:01:37;;;;;;;4.53;3.80;;;1.20;99.90;;;;;;7387377;19;20356;-81
2022/01/07 19:04:17;;;;;;;4.75;4.25;;;1.10;99.90;;;;;;7370989;19;20320;-82
2022/01/07 19:06:46;;;;;;;5.18;4.15;;;1.10;99.90;;;;;;7245164;19;2004429;-82
2022/01/07 19:09:28;;;;;;;3.90;3.60;;;1.10;99.90;;;;;;7353473;19;20403;-82
2022/01/07 19:11:57;;;;;;;4.78;4.38;;;1.20;99.90;;;;;;7369803;19;20320;-82
2022/01/07 19:14:34;;;;;;;4.72;4.13;;;1.10;99.90;;;;;;7333166;19;20351;-82
2022/01/07 19:17:34;;;;;;;3.83;3.40;;;1.10;99.90;;;;;;7314622;19;20349;-82
2022/01/07 19:20:16;;;;;;;5.90;4.07;;;1.20;99.90;;;;;;7197226;19;2004421;-82
2022/01/07 19:22:55;;;;;;;6.47;4.05;;;1.10;99.90;;;;;;7320540;19;20441;-82
2022/01/07 19:25:24;;;;;;;4.95;3.95;;;1.10;99.90;;;;;;7370327;19;20340;-82
2022/01/07 19:27:52;;;;;;;5.97;4.22;;;1.20;99.90;;;;;;7338087;19;20332;-82
2022/01/07 19:30:21;;;;;;;5.45;3.88;;;1.20;99.90;;;;;;7390780;19;20313;-81
2022/01/07 19:32:57;;;;;;;4.03;3.63;;;1.20;99.90;;;;;;7286905;19;2004398;-82
2022/01/07 19:35:23;;;;;;;4.55;3.80;;;1.20;99.90;;;;;;7376937;19;20862;-82
2022/01/07 19:37:51;;;;;;;5.13;4.13;;;1.10;99.90;;;;;;7380572;19;20404;-82
2022/01/07 19:40:18;;;;;;;4.63;4.15;;;1.20;99.90;;;;;;7385868;19;20341;-82
2022/01/07 19:42:54;;;;;;;4.60;4.20;;;1.10;99.90;;;;;;7363420;19;20321;-81
2022/01/07 19:45:22;;;;;;;4.30;3.90;;;1.00;99.90;;;;;;7364608;19;20340;-81
2022/01/07 19:48:09;;;;;;;5.82;4.10;;;1.20;99.90;;;;;;7391384;19;20364;-82
2022/01/07 19:50:40;;;;;;;4.10;3.70;;;1.20;99.90;;;;;;7301493;19;2004710;-81
2022/01/07 19:53:20;;;;;;;5.13;3.83;;;1.20;99.90;;;;;;7397606;19;20341;-82
2022/01/07 19:55:46;;;;;;;4.70;4.20;;;1.20;99.90;;;;;;7401119;19;20348;-82
2022/01/07 19:58:15;;;;;;;3.97;3.65;;;1.20;99.90;;;;;;7377976;19;20380;-82
2022/01/07 20:00:41;;;;;;;5.05;4.55;;;1.20;99.90;;;;;;7375596;19;20324;-82
2022/01/07 20:03:07;;;;;;;4.90;4.40;;;1.20;99.90;;;;;;7399374;19;20685;-84
2022/01/07 20:05:34;;;;;;;6.85;5.22;;;1.20;99.90;;;;;;7413139;19;20340;-83
2022/01/07 20:08:01;;;;;;;5.50;4.95;;;1.20;99.90;;;;;;7375792;19;20304;-82
2022/01/07 20:10:31;;;;;;;6.28;4.28;;;1.20;99.90;;;;;;7397282;19;20445;-83
2022/01/07 20:12:57;;;;;;;4.10;3.78;;;1.20;99.90;;;;;;7390783;19;20337;-82
2022/01/07 20:15:23;;;;;;;4.65;4.25;;;1.20;99.90;;;;;;7393063;19;20344;-82
2022/01/07 20:17:49;;;;;;;4.70;4.30;;;1.30;99.90;;;;;;7391104;19;20372;-81
2022/01/07 20:20:19;;;;;;;5.10;4.60;;;1.20;99.90;;;;;;7207138;19;3516426;-81
2022/01/07 20:22:46;;;;;;;4.80;4.30;;;1.20;99.90;;;;;;7389071;19;20412;-82
2022/01/07 20:25:13;;;;;;;4.75;3.92;;;1.20;99.90;;;;;;7388116;19;20324;-82
2022/01/07 20:27:38;;;;;;;6.10;4.70;;;1.20;99.90;;;;;;7389981;19;20317;-82
2022/01/07 20:30:17;;;;;;;4.65;4.25;;;1.20;99.90;;;;;;7394823;19;20357;-82
2022/01/07 20:32:42;;;;;;;4.85;4.35;;;1.20;99.90;;;;;;7389285;19;20316;-82
2022/01/07 20:35:09;;;;;;;6.73;4.70;;;1.30;99.90;;;;;;7386289;19;20317;-81
2022/01/07 20:37:39;;;;;;;5.00;4.53;;;1.30;99.90;;;;;;7386482;19;20308;-82
2022/01/07 20:40:06;;;;;;;4.70;4.20;;;1.20;99.90;;;;;;7388917;19;20308;-82
2022/01/07 20:42:36;;;;;;;5.30;4.47;;;1.30;99.90;;;;;;7388086;19;20388;-82
2022/01/07 20:45:02;;;;;;;5.32;4.45;;;1.30;99.90;;;;;;7388501;19;20340;-82
2022/01/07 20:47:28;;;;;;;5.13;4.32;;;1.30;99.90;;;;;;7367865;19;20348;-82
2022/01/07 20:49:54;;;;;;;5.53;4.63;;;1.30;99.90;;;;;;7385615;19;20312;-81
2022/01/07 20:52:20;;;;;;;5.90;4.80;;;1.30;99.90;;;;;;7388313;19;20308;-81
2022/01/07 20:54:46;;;;;;;5.60;4.60;;;1.20;99.90;;;;;;7389297;19;20862;-81
2022/01/07 20:57:11;;;;;;;5.70;4.45;;;1.30;99.90;;;;;;7386979;19;20407;-81
2022/01/07 20:59:38;;;;;;;6.00;5.32;;;1.30;99.90;;;;;;7385815;19;20325;-82
2022/01/07 21:02:04;;;;;;;6.28;4.90;;;1.30;99.90;;;;;;7386625;19;20372;-82
2022/01/07 21:04:29;;;;;;;4.70;4.20;;;1.30;99.90;;;;;;7383260;19;20357;-82
2022/01/07 21:06:55;;;;;;;5.60;4.82;;;1.40;99.90;;;;;;7387343;19;20411;-81
2022/01/07 21:09:23;;;;;;;5.83;5.23;;;1.30;99.90;;;;;;7386599;19;20345;-81
2022/01/07 21:11:49;;;;;;;5.50;4.82;;;1.30;99.90;;;;;;7363493;19;20392;-81
2022/01/07 21:14:15;;;;;;;6.07;4.80;;;1.30;99.90;;;;;;7388591;19;20895;-81
2022/01/07 21:16:41;;;;;;;9.65;7.82;;;1.30;99.90;;;;;;7385860;19;20349;-82
2022/01/07 21:19:07;;;;;;;5.45;4.95;;;1.30;99.90;;;;;;7384022;19;20954;-82
2022/01/07 21:21:32;;;;;;;7.03;5.40;;;1.10;99.90;;;;;;7388995;19;20347;-82
2022/01/07 21:23:58;;;;;;;5.45;4.85;;;1.30;99.90;;;;;;7386972;19;20431;-82
2022/01/07 21:26:24;;;;;;;5.80;4.72;;;1.30;99.90;;;;;;7385664;19;20356;-83
2022/01/07 21:28:50;;;;;;;5.78;5.13;;;1.20;99.90;;;;;;7388623;19;20336;-79
2022/01/07 21:31:19;;;;;;;6.32;4.88;;;1.30;99.90;;;;;;7387319;19;20369;-82
2022/01/07 21:33:45;;;;;;;5.30;4.80;;;1.30;99.90;;;;;;7387322;19;20313;-81
2022/01/07 21:36:16;;;;;;;4.95;4.55;;;1.30;99.90;;;;;;7387801;19;20871;-81
2022/01/07 21:38:43;;;;;;;5.00;4.50;;;1.20;99.90;;;;;;7345814;19;20341;-81
2022/01/07 21:41:08;;;;;;;4.68;4.20;;;1.30;99.90;;;;;;7382992;19;20333;-82
2022/01/07 21:43:34;;;;;;;4.90;4.38;;;1.20;99.90;;;;;;7386937;19;20313;-81
2022/01/07 21:46:00;;;;;;;4.63;4.22;;;1.20;99.90;;;;;;7383928;19;21228;-82